createdAt,value
2022-12-03T00:01:25.083Z,101886.28
2022-12-03T00:03:52.649Z,101881.06
2022-12-03T00:06:20.329Z,101880.31
2022-12-03T00:08:47.926Z,101882.91
2022-12-03T00:11:15.450Z,101879.47
2022-12-03T00:13:42.942Z,101876.88
2022-12-03T00:16:10.507Z,101874.31
2022-12-03T00:18:38.122Z,101876.91
2022-12-03T00:21:05.707Z,101876.09
2022-12-03T00:23:35.962Z,101873.50
2022-12-03T00:26:07.781Z,101868.25
2022-12-03T00:28:35.288Z,101878.63
2022-12-03T00:31:02.873Z,101880.34
2022-12-03T00:33:30.320Z,101873.47
2022-12-03T00:35:57.712Z,101874.34
2022-12-03T00:38:25.133Z,101881.25
2022-12-03T00:40:52.499Z,101876.88
2022-12-03T00:43:19.883Z,101869.06
2022-12-03T00:45:47.305Z,101868.19
2022-12-03T00:48:14.681Z,101863.81
2022-12-03T00:50:42.315Z,101866.41
2022-12-03T00:53:09.681Z,101859.63
2022-12-03T00:55:41.739Z,101864.81
2022-12-03T00:58:09.899Z,101864.84
2022-12-03T01:00:37.747Z,101862.19
2022-12-03T01:03:05.896Z,101862.13
2022-12-03T01:05:33.303Z,101858.78
2022-12-03T01:08:00.943Z,101872.56
2022-12-03T01:10:28.499Z,101868.28
2022-12-03T01:12:56.089Z,101863.94
2022-12-03T01:15:23.574Z,101863.91
2022-12-03T01:17:50.893Z,101865.72
2022-12-03T01:20:18.389Z,101867.38
2022-12-03T01:22:45.701Z,101872.50
2022-12-03T01:25:13.045Z,101865.66
2022-12-03T01:27:40.368Z,101871.72
2022-12-03T01:30:08.938Z,101874.31
2022-12-03T01:32:36.324Z,101868.25
2022-12-03T01:35:03.764Z,101863.06
2022-12-03T01:37:31.354Z,101872.59
2022-12-03T01:39:58.626Z,101864.81
2022-12-03T01:42:29.210Z,101863.03
2022-12-03T01:44:58.048Z,101866.50
2022-12-03T01:47:31.569Z,101869.13
2022-12-03T01:50:13.993Z,101866.50
2022-12-03T01:52:41.846Z,101857.00
2022-12-03T01:55:17.886Z,101857.91
2022-12-03T01:57:48.812Z,101857.84
2022-12-03T02:00:21.643Z,101857.88
2022-12-03T02:02:54.999Z,101857.94
2022-12-03T02:05:27.429Z,101857.03
2022-12-03T02:07:55.402Z,101852.72
2022-12-03T02:10:31.454Z,101856.16
2022-12-03T02:13:02.052Z,101851.81
2022-12-03T02:15:29.549Z,101863.91
2022-12-03T02:17:57.675Z,101858.84
2022-12-03T02:20:24.932Z,101861.44
2022-12-03T02:23:08.862Z,101858.88
2022-12-03T02:25:36.966Z,101863.09
2022-12-03T02:28:04.975Z,101860.47
2022-12-03T02:30:32.716Z,101857.03
2022-12-03T02:33:00.150Z,101858.75
2022-12-03T02:35:31.505Z,101850.97
2022-12-03T02:38:19.062Z,101855.22
2022-12-03T02:40:48.028Z,101862.19
2022-12-03T02:43:16.555Z,101855.25
2022-12-03T02:45:46.943Z,101857.00
2022-12-03T02:48:23.998Z,101853.53
2022-12-03T02:50:56.263Z,101851.84
2022-12-03T02:53:27.400Z,101853.50
2022-12-03T02:55:56.375Z,101856.91
2022-12-03T02:58:25.160Z,101855.19
2022-12-03T03:00:53.318Z,101856.09
2022-12-03T03:03:21.374Z,101850.09
2022-12-03T03:05:49.003Z,101858.75
2022-12-03T03:08:17.016Z,101855.34
2022-12-03T03:10:44.723Z,101856.19
2022-12-03T03:13:13.605Z,101855.34
2022-12-03T03:15:42.052Z,101855.31
2022-12-03T03:18:10.166Z,101851.91
2022-12-03T03:20:38.158Z,101845.94
2022-12-03T03:23:12.232Z,101848.50
2022-12-03T03:25:41.844Z,101851.13
2022-12-03T03:28:09.581Z,101842.47
2022-12-03T03:30:38.947Z,101847.63
2022-12-03T03:33:06.425Z,101843.31
2022-12-03T03:35:33.693Z,101837.22
2022-12-03T03:38:01.012Z,101836.38
2022-12-03T03:40:28.682Z,101833.75
2022-12-03T03:42:56.296Z,101838.91
2022-12-03T03:45:28.762Z,101830.28
2022-12-03T03:47:59.164Z,101830.28
2022-12-03T03:50:28.535Z,101829.44
2022-12-03T03:52:56.991Z,101826.00
2022-12-03T03:55:24.587Z,101826.00
2022-12-03T03:57:51.911Z,101822.53
2022-12-03T04:00:19.507Z,101817.38
2022-12-03T04:02:46.982Z,101812.22
2022-12-03T04:05:20.635Z,101813.94
2022-12-03T04:07:48.069Z,101814.78
2022-12-03T04:10:36.103Z,101806.19
2022-12-03T04:13:04.074Z,101814.00
2022-12-03T04:15:31.491Z,101803.66
2022-12-03T04:18:17.621Z,101813.13
2022-12-03T04:20:44.922Z,101802.75
2022-12-03T04:23:12.222Z,101800.97
2022-12-03T04:25:57.840Z,101800.97
2022-12-03T04:28:43.977Z,101803.53
2022-12-03T04:31:29.598Z,101795.84
2022-12-03T04:34:15.756Z,101801.03
2022-12-03T04:36:43.005Z,101789.78
2022-12-03T04:39:10.310Z,101797.53
2022-12-03T04:41:37.604Z,101795.88
2022-12-03T04:44:23.714Z,101798.47
2022-12-03T04:46:51.009Z,101794.13
2022-12-03T04:49:18.282Z,101791.53
2022-12-03T04:51:45.583Z,101796.69
2022-12-03T04:54:12.853Z,101795.78
2022-12-03T04:56:40.229Z,101793.22
2022-12-03T04:59:11.383Z,101791.53
2022-12-03T05:01:43.183Z,101794.94
2022-12-03T05:04:11.273Z,101785.44
2022-12-03T05:06:38.599Z,101787.19
2022-12-03T05:09:05.911Z,101788.09
2022-12-03T05:11:33.214Z,101786.38
2022-12-03T05:14:00.616Z,101781.22
2022-12-03T05:16:28.119Z,101785.50
2022-12-03T05:18:55.379Z,101782.88
2022-12-03T05:21:22.982Z,101775.97
2022-12-03T05:23:50.806Z,101780.19
2022-12-03T05:26:18.257Z,101782.78
2022-12-03T05:28:45.598Z,101780.25
2022-12-03T05:31:13.025Z,101773.31
2022-12-03T05:33:44.247Z,101782.84
2022-12-03T05:36:12.102Z,101778.56
2022-12-03T05:38:39.367Z,101788.00
2022-12-03T05:41:25.435Z,101782.88
2022-12-03T05:43:52.694Z,101776.00
2022-12-03T05:46:20.131Z,101778.59
2022-12-03T05:48:47.530Z,101772.50
2022-12-03T05:51:14.936Z,101773.38
2022-12-03T05:53:42.264Z,101769.91
2022-12-03T05:56:09.621Z,101759.56
2022-12-03T05:58:36.869Z,101769.06
2022-12-03T06:01:04.233Z,101763.91
2022-12-03T06:03:31.699Z,101766.44
2022-12-03T06:05:59.443Z,101769.00
2022-12-03T06:08:26.698Z,101769.03
2022-12-03T06:10:54.085Z,101772.44
2022-12-03T06:13:21.383Z,101777.63
2022-12-03T06:15:48.770Z,101774.22
2022-12-03T06:18:16.108Z,101772.44
2022-12-03T06:20:43.461Z,101771.59
2022-12-03T06:23:10.835Z,101774.22
2022-12-03T06:25:38.102Z,101767.28
2022-12-03T06:28:06.074Z,101771.59
2022-12-03T06:30:35.176Z,101771.56
2022-12-03T06:33:02.557Z,101768.19
2022-12-03T06:35:30.076Z,101766.44
2022-12-03T06:37:57.532Z,101770.78
2022-12-03T06:40:25.066Z,101776.00
2022-12-03T06:42:52.566Z,101774.25
2022-12-03T06:45:19.864Z,101770.78
2022-12-03T06:47:47.145Z,101772.50
2022-12-03T06:50:14.445Z,101775.94
2022-12-03T06:52:41.780Z,101769.91
2022-12-03T06:55:09.623Z,101769.94
2022-12-03T06:57:36.991Z,101766.41
2022-12-03T07:00:06.078Z,101773.22
2022-12-03T07:02:33.527Z,101773.25
2022-12-03T07:05:00.905Z,101774.16
2022-12-03T07:07:28.254Z,101768.09
2022-12-03T07:09:55.827Z,101764.69
2022-12-03T07:12:23.104Z,101763.88
2022-12-03T07:14:50.436Z,101764.72
2022-12-03T07:17:17.788Z,101773.31
2022-12-03T07:19:45.086Z,101769.00
2022-12-03T07:22:12.329Z,101771.59
2022-12-03T07:24:39.671Z,101771.53
2022-12-03T07:27:06.961Z,101773.31
2022-12-03T07:29:34.294Z,101768.16
2022-12-03T07:32:01.562Z,101767.28
2022-12-03T07:34:28.847Z,101770.78
2022-12-03T07:36:56.158Z,101760.41
2022-12-03T07:39:23.450Z,101763.81
2022-12-03T07:41:50.754Z,101760.41
2022-12-03T07:44:18.039Z,101768.16
2022-12-03T07:46:45.358Z,101769.03
2022-12-03T07:49:12.726Z,101761.25
2022-12-03T07:51:40.160Z,101767.25
2022-12-03T07:54:07.609Z,101767.25
2022-12-03T07:56:34.933Z,101772.44
2022-12-03T07:59:02.283Z,101763.81
2022-12-03T08:01:29.632Z,101767.22
2022-12-03T08:03:57.009Z,101767.16
2022-12-03T08:06:24.347Z,101752.47
2022-12-03T08:08:51.613Z,101753.41
2022-12-03T08:11:18.973Z,101757.69
2022-12-03T08:13:46.292Z,101754.31
2022-12-03T08:16:20.822Z,101746.59
2022-12-03T08:18:49.642Z,101744.91
2022-12-03T08:21:19.390Z,101744.03
2022-12-03T08:23:46.965Z,101738.84
2022-12-03T08:26:29.692Z,101744.88
2022-12-03T08:28:57.382Z,101747.41
2022-12-03T08:31:32.803Z,101744.00
2022-12-03T08:34:21.785Z,101740.53
2022-12-03T08:36:56.780Z,101749.19
2022-12-03T08:39:34.104Z,101740.59
2022-12-03T08:42:31.938Z,101741.47
2022-12-03T08:45:20.593Z,101743.22
2022-12-03T08:47:47.898Z,101738.94
2022-12-03T08:50:29.858Z,101742.31
2022-12-03T08:53:15.606Z,101741.44
2022-12-03T08:55:47.811Z,101744.91
2022-12-03T08:58:15.010Z,101743.19
2022-12-03T09:00:42.790Z,101740.66
2022-12-03T09:03:14.933Z,101736.31
2022-12-03T09:05:42.199Z,101741.50
2022-12-03T09:08:09.553Z,101742.34
2022-12-03T09:10:36.934Z,101743.22
2022-12-03T09:13:04.218Z,101750.13
2022-12-03T09:15:31.531Z,101744.03
2022-12-03T09:17:58.878Z,101740.59
2022-12-03T09:20:26.126Z,101737.16
2022-12-03T09:22:53.411Z,101739.75
2022-12-03T09:25:20.699Z,101736.31
2022-12-03T09:27:48.179Z,101737.16
2022-12-03T09:30:15.697Z,101732.84
2022-12-03T09:32:43.212Z,101728.56
2022-12-03T09:35:10.515Z,101725.97
2022-12-03T09:37:37.835Z,101730.31
2022-12-03T09:40:06.012Z,101723.41
2022-12-03T09:42:33.667Z,101723.41
2022-12-03T09:45:03.380Z,101715.69
2022-12-03T09:47:31.270Z,101720.03
2022-12-03T09:49:58.823Z,101715.69
2022-12-03T09:52:27.737Z,101718.31
2022-12-03T09:54:55.563Z,101716.59
2022-12-03T09:57:23.180Z,101719.16
2022-12-03T09:59:50.598Z,101712.28
2022-12-03T10:02:24.248Z,101707.97
2022-12-03T10:04:53.284Z,101701.13
2022-12-03T10:07:21.007Z,101699.38
2022-12-03T10:09:48.354Z,101694.22
2022-12-03T10:12:22.636Z,101697.69
2022-12-03T10:14:50.019Z,101696.81
2022-12-03T10:17:17.502Z,101689.91
2022-12-03T10:19:44.973Z,101698.50
2022-12-03T10:22:12.454Z,101695.94
2022-12-03T10:24:39.912Z,101695.06
2022-12-03T10:27:24.890Z,101693.31
2022-12-03T10:29:56.910Z,101689.88
2022-12-03T10:32:40.435Z,101684.69
2022-12-03T10:35:11.424Z,101683.84
2022-12-03T10:37:55.595Z,101681.28
2022-12-03T10:40:28.420Z,101683.00
2022-12-03T10:43:14.088Z,101683.88
2022-12-03T10:45:42.643Z,101670.91
2022-12-03T10:48:20.385Z,101681.25
2022-12-03T10:51:00.512Z,101672.63
2022-12-03T10:53:30.354Z,101676.94
2022-12-03T10:56:00.133Z,101675.19
2022-12-03T10:58:34.452Z,101674.31
2022-12-03T11:01:03.494Z,101669.19
2022-12-03T11:03:34.885Z,101671.75
2022-12-03T11:06:03.374Z,101673.50
2022-12-03T11:08:33.822Z,101669.19
2022-12-03T11:11:23.047Z,101666.59
2022-12-03T11:13:55.185Z,101662.28
2022-12-03T11:16:40.555Z,101666.63
2022-12-03T11:19:13.516Z,101664.91
2022-12-03T11:22:05.357Z,101658.84
2022-12-03T11:24:34.759Z,101656.28
2022-12-03T11:27:01.981Z,101654.53
2022-12-03T11:30:01.818Z,101648.50
2022-12-03T11:32:38.017Z,101642.47
2022-12-03T11:35:15.030Z,101646.78
2022-12-03T11:37:42.608Z,101638.16
2022-12-03T11:40:18.586Z,101633.84
2022-12-03T11:42:47.387Z,101634.72
2022-12-03T11:45:30.754Z,101628.66
2022-12-03T11:47:58.043Z,101631.25
2022-12-03T11:50:57.469Z,101626.94
2022-12-03T11:53:31.065Z,101626.94
2022-12-03T11:56:08.892Z,101623.47
2022-12-03T11:58:39.018Z,101626.06
2022-12-03T12:01:07.942Z,101626.06
2022-12-03T12:03:55.614Z,101628.66
2022-12-03T12:06:23.044Z,101629.53
2022-12-03T12:08:59.819Z,101625.19
2022-12-03T12:11:35.151Z,101629.53
2022-12-03T12:14:04.663Z,101629.53
2022-12-03T12:16:50.778Z,101623.50
2022-12-03T12:19:43.113Z,101632.09
2022-12-03T12:22:23.045Z,101631.28
2022-12-03T12:25:25.183Z,101627.78
2022-12-03T12:27:53.827Z,101626.94
2022-12-03T12:30:22.492Z,101628.66
2022-12-03T12:33:12.240Z,101620.88
2022-12-03T12:35:40.783Z,101621.78
2022-12-03T12:38:08.655Z,101618.31
2022-12-03T12:40:37.535Z,101615.72
2022-12-03T12:43:15.265Z,101615.72
2022-12-03T12:45:45.334Z,101607.94
2022-12-03T12:48:26.141Z,101609.69
2022-12-03T12:51:02.837Z,101612.28
2022-12-03T12:53:37.481Z,101604.50
2022-12-03T12:56:13.365Z,101600.19
2022-12-03T12:58:40.735Z,101595.88
2022-12-03T13:01:16.063Z,101605.38
2022-12-03T13:03:43.400Z,101597.59
2022-12-03T13:06:11.501Z,101598.47
2022-12-03T13:08:40.894Z,101592.41
2022-12-03T13:11:41.254Z,101581.19
2022-12-03T13:14:25.563Z,101574.31
2022-12-03T13:16:55.129Z,101576.00
2022-12-03T13:19:25.130Z,101575.19
2022-12-03T13:21:54.569Z,101573.44
2022-12-03T13:24:37.587Z,101569.97
2022-12-03T13:27:16.993Z,101572.56
2022-12-03T13:29:47.995Z,101580.34
2022-12-03T13:32:30.732Z,101582.09
2022-12-03T13:35:24.028Z,101581.19
2022-12-03T13:37:51.388Z,101572.59
2022-12-03T13:40:27.701Z,101569.13
2022-12-03T13:42:55.094Z,101573.44
2022-12-03T13:45:24.675Z,101561.34
2022-12-03T13:48:00.677Z,101565.69
2022-12-03T13:50:44.424Z,101575.16
2022-12-03T13:53:11.746Z,101569.13
2022-12-03T13:55:45.643Z,101564.81
2022-12-03T13:58:12.969Z,101555.31
2022-12-03T14:00:40.325Z,101569.09
2022-12-03T14:03:07.788Z,101569.97
2022-12-03T14:05:35.060Z,101559.66
2022-12-03T14:08:02.517Z,101560.50
2022-12-03T14:10:29.928Z,101560.50
2022-12-03T14:12:57.515Z,101563.09
2022-12-03T14:15:27.799Z,101563.94
2022-12-03T14:17:55.255Z,101568.25
2022-12-03T14:20:22.550Z,101571.69
2022-12-03T14:22:49.822Z,101569.16
2022-12-03T14:25:17.596Z,101567.38
2022-12-03T14:27:44.870Z,101564.81
2022-12-03T14:30:12.558Z,101561.38
2022-12-03T14:32:39.847Z,101563.06
2022-12-03T14:35:10.132Z,101561.34
2022-12-03T14:37:37.675Z,101561.38
2022-12-03T14:40:06.996Z,101558.78
2022-12-03T14:42:34.623Z,101566.53
2022-12-03T14:45:02.023Z,101568.28
2022-12-03T14:47:29.257Z,101564.81
2022-12-03T14:49:57.117Z,101562.25
2022-12-03T14:52:24.515Z,101562.25
2022-12-03T14:54:51.803Z,101569.97
2022-12-03T14:57:19.154Z,101563.94
2022-12-03T14:59:47.082Z,101571.69
2022-12-03T15:02:14.518Z,101567.41
2022-12-03T15:04:41.911Z,101566.53
2022-12-03T15:07:09.431Z,101578.63
2022-12-03T15:09:36.730Z,101564.81
2022-12-03T15:12:04.585Z,101573.44
2022-12-03T15:14:31.862Z,101579.47
2022-12-03T15:16:59.308Z,101576.03
2022-12-03T15:19:26.751Z,101567.41
2022-12-03T15:21:54.109Z,101566.53
2022-12-03T15:24:21.511Z,101567.38
2022-12-03T15:26:49.544Z,101568.25
2022-12-03T15:29:16.823Z,101570.84
2022-12-03T15:31:44.588Z,101569.97
2022-12-03T15:34:12.793Z,101568.28
2022-12-03T15:36:42.260Z,101569.09
2022-12-03T15:39:09.755Z,101562.22
2022-12-03T15:41:37.022Z,101562.22
2022-12-03T15:44:04.701Z,101563.94
2022-12-03T15:46:32.021Z,101564.81
2022-12-03T15:49:00.304Z,101566.53
2022-12-03T15:51:27.654Z,101560.50
2022-12-03T15:53:54.944Z,101560.50
2022-12-03T15:56:22.420Z,101566.53
2022-12-03T15:58:49.814Z,101570.00
2022-12-03T16:01:18.309Z,101568.25
2022-12-03T16:03:46.334Z,101569.09
2022-12-03T16:06:14.683Z,101569.13
2022-12-03T16:08:42.092Z,101562.22
2022-12-03T16:11:09.765Z,101562.22
2022-12-03T16:13:37.095Z,101552.75
2022-12-03T16:16:04.619Z,101554.47
2022-12-03T16:18:32.270Z,101559.66
2022-12-03T16:20:59.882Z,101556.16
2022-12-03T16:23:27.440Z,101559.66
2022-12-03T16:25:55.497Z,101556.19
2022-12-03T16:28:23.055Z,101551.88
2022-12-03T16:30:51.047Z,101545.84
2022-12-03T16:33:24.045Z,101553.59
2022-12-03T16:35:54.772Z,101549.28
2022-12-03T16:38:22.258Z,101554.47
2022-12-03T16:40:49.617Z,101544.09
2022-12-03T16:43:16.963Z,101546.69
2022-12-03T16:45:56.077Z,101542.38
2022-12-03T16:48:23.422Z,101550.13
2022-12-03T16:50:50.727Z,101533.72
2022-12-03T16:53:18.078Z,101551.00
2022-12-03T16:55:45.349Z,101551.03
2022-12-03T16:58:12.636Z,101551.88
2022-12-03T17:00:39.899Z,101540.66
2022-12-03T17:03:07.274Z,101549.28
2022-12-03T17:05:34.628Z,101551.00
2022-12-03T17:08:01.937Z,101544.97
2022-12-03T17:10:29.411Z,101549.28
2022-12-03T17:13:12.198Z,101546.69
2022-12-03T17:15:40.205Z,101545.81
2022-12-03T17:18:08.131Z,101546.69
2022-12-03T17:20:36.063Z,101552.72
2022-12-03T17:23:03.593Z,101542.38
2022-12-03T17:25:31.018Z,101537.19
2022-12-03T17:27:58.381Z,101546.69
2022-12-03T17:30:25.814Z,101546.69
2022-12-03T17:32:53.108Z,101544.09
2022-12-03T17:35:20.443Z,101540.66
2022-12-03T17:37:47.777Z,101540.63
2022-12-03T17:40:16.889Z,101538.91
2022-12-03T17:42:44.303Z,101536.34
2022-12-03T17:45:12.524Z,101532.88
2022-12-03T17:47:39.810Z,101536.34
2022-12-03T17:50:07.859Z,101533.72
2022-12-03T17:52:35.176Z,101531.13
2022-12-03T17:55:11.883Z,101535.44
2022-12-03T17:57:41.657Z,101530.25
2022-12-03T18:00:09.585Z,101534.59
2022-12-03T18:02:36.968Z,101532.88
2022-12-03T18:05:04.362Z,101534.59
2022-12-03T18:07:31.833Z,101539.75
2022-12-03T18:09:59.218Z,101531.97
2022-12-03T18:12:26.580Z,101538.91
2022-12-03T18:14:53.802Z,101542.38
2022-12-03T18:17:21.125Z,101544.94
2022-12-03T18:19:48.563Z,101544.94
2022-12-03T18:22:16.127Z,101538.91
2022-12-03T18:24:46.119Z,101525.06
2022-12-03T18:27:14.789Z,101528.50
2022-12-03T18:29:42.189Z,101528.53
2022-12-03T18:32:27.173Z,101532.88
2022-12-03T18:34:55.684Z,101531.13
2022-12-03T18:37:28.629Z,101526.81
2022-12-03T18:39:56.675Z,101526.81
2022-12-03T18:42:24.714Z,101529.38
2022-12-03T18:44:54.117Z,101526.78
2022-12-03T18:47:23.830Z,101527.66
2022-12-03T18:49:51.265Z,101527.66
2022-12-03T18:52:20.970Z,101529.41
2022-12-03T18:54:48.497Z,101523.34
2022-12-03T18:57:16.172Z,101528.50
2022-12-03T18:59:43.622Z,101530.22
2022-12-03T19:02:38.493Z,101535.44
2022-12-03T19:05:04.005Z,101532.84
2022-12-03T19:07:31.325Z,101534.56
2022-12-03T19:09:58.754Z,101526.81
2022-12-03T19:12:26.029Z,101534.59
2022-12-03T19:14:53.367Z,101531.97
2022-12-03T19:17:21.624Z,101532.88
2022-12-03T19:19:48.970Z,101537.19
2022-12-03T19:22:16.313Z,101542.34
2022-12-03T19:24:43.804Z,101541.47
2022-12-03T19:27:11.154Z,101537.16
2022-12-03T19:29:38.551Z,101535.47
2022-12-03T19:32:05.971Z,101537.19
2022-12-03T19:34:33.459Z,101536.28
2022-12-03T19:37:00.750Z,101528.53
2022-12-03T19:39:28.059Z,101525.94
2022-12-03T19:41:55.525Z,101535.41
2022-12-03T19:44:22.885Z,101542.31
2022-12-03T19:46:50.858Z,101537.16
2022-12-03T19:49:20.863Z,101543.19
2022-12-03T19:51:48.662Z,101542.34
2022-12-03T19:54:16.556Z,101535.44
2022-12-03T19:56:44.237Z,101538.88
2022-12-03T19:59:12.520Z,101543.19
2022-12-03T20:01:42.783Z,101531.13
2022-12-03T20:04:11.562Z,101537.16
2022-12-03T20:06:39.158Z,101533.72
2022-12-03T20:09:17.121Z,101541.44
2022-12-03T20:11:45.801Z,101535.44
2022-12-03T20:14:15.608Z,101537.16
2022-12-03T20:16:44.457Z,101529.38
2022-12-03T20:19:14.729Z,101524.19
2022-12-03T20:21:43.002Z,101518.97
2022-12-03T20:24:14.193Z,101529.34
2022-12-03T20:26:41.580Z,101525.91
2022-12-03T20:29:08.857Z,101527.63
2022-12-03T20:31:36.334Z,101524.19
2022-12-03T20:34:03.970Z,101530.22
2022-12-03T20:36:32.089Z,101529.34
2022-12-03T20:39:01.830Z,101534.50
2022-12-03T20:41:29.344Z,101537.09
2022-12-03T20:43:57.015Z,101538.81
2022-12-03T20:46:26.732Z,101550.97
2022-12-03T20:48:55.109Z,101544.03
2022-12-03T20:51:26.161Z,101544.03
2022-12-03T20:53:53.910Z,101549.22
2022-12-03T20:56:23.947Z,101551.81
2022-12-03T20:58:51.328Z,101538.00
2022-12-03T21:01:24.806Z,101534.53
2022-12-03T21:03:54.116Z,101538.84
2022-12-03T21:06:22.334Z,101539.69
2022-12-03T21:08:50.117Z,101537.13
2022-12-03T21:11:19.942Z,101540.56
2022-12-03T21:13:47.716Z,101532.78
2022-12-03T21:16:17.611Z,101538.81
2022-12-03T21:18:45.293Z,101537.09
2022-12-03T21:21:14.233Z,101536.25
2022-12-03T21:23:42.104Z,101537.94
2022-12-03T21:26:29.621Z,101536.25
2022-12-03T21:28:56.967Z,101535.38
2022-12-03T21:31:26.317Z,101533.66
2022-12-03T21:33:54.652Z,101522.44
2022-12-03T21:36:22.866Z,101524.16
2022-12-03T21:38:50.147Z,101523.31
2022-12-03T21:41:17.819Z,101529.41
2022-12-03T21:43:45.231Z,101528.50
2022-12-03T21:47:10.837Z,101511.25
2022-12-03T21:49:04.619Z,101514.72
2022-12-03T21:51:31.940Z,101509.56
2022-12-03T21:53:59.209Z,101518.16
2022-12-03T21:56:26.577Z,101508.66
2022-12-03T21:58:54.743Z,101506.91
2022-12-03T22:01:23.849Z,101517.28
2022-12-03T22:03:51.403Z,101517.22
2022-12-03T22:06:19.379Z,101519.81
2022-12-03T22:08:47.226Z,101525.88
2022-12-03T22:11:18.961Z,101525.00
2022-12-03T22:13:46.521Z,101519.00
2022-12-03T22:16:16.407Z,101515.56
2022-12-03T22:18:44.206Z,101507.78
2022-12-03T22:21:19.559Z,101505.19
2022-12-03T22:23:46.990Z,101510.34
2022-12-03T22:26:16.521Z,101507.75
2022-12-03T22:28:45.242Z,101506.00
2022-12-03T22:31:12.820Z,101513.78
2022-12-03T22:33:40.355Z,101507.75
2022-12-03T22:36:16.213Z,101508.59
2022-12-03T22:38:47.619Z,101505.09
2022-12-03T22:41:15.706Z,101505.13
2022-12-03T22:43:43.349Z,101499.97
2022-12-03T22:46:14.545Z,101504.28
2022-12-03T22:48:43.093Z,101507.75
2022-12-03T22:51:19.130Z,101496.53
2022-12-03T22:53:46.763Z,101493.09
2022-12-03T22:56:14.305Z,101496.53
2022-12-03T22:58:41.740Z,101493.94
2022-12-03T23:01:23.926Z,101491.31
2022-12-03T23:03:51.606Z,101490.44
2022-12-03T23:06:19.183Z,101486.97
2022-12-03T23:08:46.695Z,101490.44
2022-12-03T23:11:14.517Z,101489.56
2022-12-03T23:13:42.243Z,101481.81
2022-12-03T23:16:30.357Z,101481.88
2022-12-03T23:18:59.556Z,101482.72
2022-12-03T23:21:30.181Z,101481.00
2022-12-03T23:23:59.075Z,101474.94
2022-12-03T23:26:26.530Z,101475.81
2022-12-03T23:28:53.865Z,101480.09
2022-12-03T23:31:26.545Z,101475.78
2022-12-03T23:33:54.375Z,101485.31
2022-12-03T23:36:22.326Z,101470.59
2022-12-03T23:38:49.743Z,101474.06
2022-12-03T23:41:19.919Z,101461.13
2022-12-03T23:43:47.702Z,101464.56
2022-12-03T23:46:17.715Z,101463.69
2022-12-03T23:48:45.571Z,101467.16
2022-12-03T23:51:18.025Z,101454.19
2022-12-03T23:53:45.919Z,101459.41
2022-12-03T23:56:17.060Z,101459.38
2022-12-03T23:58:44.773Z,101450.72
